NCAR-RAP Real-Time Weather Data

Output produced by METARs form (12 May 2021  12:35 UTC)
found at http://weather.rap.ucar.edu/surface/
 
KNYC 121151Z AUTO VRB05KT 10SM CLR 09/00 A3018 RMK AO2 SLP213 T00890000 10106 20078 51016
KNYC 121051Z AUTO VRB06G15KT 10SM CLR 08/M01 A3017 RMK AO2 SLP208 T00831011
KNYC 120951Z AUTO VRB05KT 10SM CLR 08/M01 A3016 RMK AO2 SLP203 T00831011
KNYC 120851Z AUTO VRB05KT 10SM CLR 08/M02 A3014 RMK AO2 SLP196 T00831017 55002
KNYC 120751Z AUTO 32006G16KT 10SM CLR 09/M02 A3012 RMK AO2 SLP190 T00891022
KNYC 120651Z AUTO 10SM CLR 10/M03 A3013 RMK AO2 SLP194 T01001028
KNYC 120551Z AUTO 32009G17KT 260V050 10SM CLR 11/M03 A3014 RMK AO2 SLP198 T01061033 10150 20106 51014
KNYC 120451Z AUTO 31009KT 270V340 10SM CLR 11/M03 A3014 RMK AO2 SLP196 T01111033 401940094
KNYC 120351Z AUTO VRB06KT 10SM OVC110 12/M02 A3012 RMK AO2 SLP192 T01221017
KNYC 120251Z AUTO 31007KT 10SM OVC085 13/M02 A3010 RMK AO2 SLP184 T01331017 51020
KNYC 120151Z AUTO 32008KT 10SM FEW070 BKN085 14/00 A3009 RMK AO2 SLP179 T01390000
KNYC 120051Z AUTO VRB05KT 10SM BKN100 14/01 A3006 RMK AO2 SLP169 T01390006
KNYC 112351Z AUTO VRB06KT 10SM BKN085 15/01 A3004 RMK AO2 SLP164 T01500006 10194 20150 53013
KNYC 112251Z AUTO 29007G14KT 240V330 10SM BKN075 OVC095 16/00 A3002 RMK AO2 SLP158 T01610000
KNYC 112151Z AUTO VRB06KT 10SM OVC075 17/M01 A3002 RMK AO2 SLP156 T01671006
KNYC 112051Z AUTO VRB06G18KT 10SM BKN095 BKN110 18/M02 A3000 RMK AO2 SLP151 T01781017 55002